Home   Weather   India   Tenkasi   Past weeks
Flag for India

Past Weather in Tenkasi, Tamil Nadu, India — Yesterday and Last 2 Weeks

Currently: 81 °F. Scattered clouds. (Weather station: Thiruvananthapuram, India). See more current weather

Past Weather in Tenkasi — Graph

°F

Tenkasi Temperature Yesterday

Maximum temperature yesterday: 86 °F (at 11:30 am)
Minimum temperature yesterday: 79 °F (at 1:00 am)
Average temperature yesterday: 81 °F

High & Low Weather Summary for the Past Weeks

 TemperatureHumidityPressure
High91 °F (Jul 17, 12:30 pm)100% (Jul 14, 2:30 am)29.89 "Hg (Jul 14, 2:30 am)
Low73 °F (Jul 24, 4:00 am)62% (Jul 18, 1:30 pm)29.68 "Hg (Jul 15, 2:30 pm)
Average82 °F87%29.79 "Hg
* Reported Jul 13 4:30 pm — Jul 28 5:00 pm, Tenkasi. Weather by CustomWeather, © 2021

Note: Actual official high and low records may vary slightly from our data, if they occured in-between our weather recording intervals... More about our weather records

Tenkasi Weather History for the Previous 24 Hours

Scroll right to see more
 ConditionsComfort  
Time TempWeatherWind HumidityBarometerVisibility
5:00 pm
Wed, Jul 28
81 °FScattered clouds.8 mph89%29.80 "Hg4 mi
4:30 pm82 °FScattered clouds.12 mph84%29.80 "Hg4 mi
4:00 pm82 °FScattered clouds.12 mph84%29.80 "Hg4 mi
3:30 pm82 °FScattered clouds.12 mph84%29.80 "Hg4 mi
3:00 pm82 °FScattered clouds.14 mph84%29.80 "Hg4 mi
2:30 pm82 °FScattered clouds.12 mph84%29.80 "Hg4 mi
2:00 pm84 °FScattered clouds.12 mph79%29.80 "Hg4 mi
1:30 pm84 °FScattered clouds.12 mph79%29.83 "Hg4 mi
1:00 pm86 °FBroken clouds.10 mph75%29.83 "Hg4 mi
12:30 pm84 °FBroken clouds.9 mph79%29.83 "Hg3 mi
12:00 pm84 °FScattered clouds.7 mph89%29.83 "Hg2 mi
11:30 am81 °FBroken clouds.12 mph94%29.86 "Hg2 mi
11:00 am81 °FLight rain. More clouds than sun.12 mph94%29.86 "Hg2 mi
10:30 am84 °FScattered clouds.10 mph89%29.86 "Hg4 mi
10:00 am84 °FPassing clouds.9 mph94%29.86 "Hg4 mi
9:30 am84 °FPassing clouds.8 mph94%29.86 "Hg4 mi
9:00 am84 °FPassing clouds.7 mph94%29.83 "Hg4 mi
8:30 am82 °FPassing clouds.7 mph94%29.83 "Hg4 mi
8:00 am81 °FBroken clouds.8 mph94%29.83 "Hg3 mi
7:30 am79 °FScattered clouds.5 mph94%29.83 "Hg3 mi
7:00 am77 °FScattered clouds.5 mph100%29.80 "Hg2 mi
6:30 am77 °FFog.5 mph100%29.80 "Hg2 mi
6:00 am79 °FFog.No wind94%29.80 "Hg2 mi
5:30 am79 °FFog.No wind94%29.77 "Hg2 mi
5:00 am79 °FFog.No wind94%29.80 "Hg2 mi
4:30 am79 °FFog.No wind94%29.80 "Hg2 mi
4:00 am79 °FFog.No wind94%29.80 "Hg2 mi
3:30 am79 °FFog.3 mph94%29.80 "Hg2 mi
3:00 am79 °FFog.5 mph94%29.80 "Hg2 mi
2:30 am79 °FFog.No wind94%29.80 "Hg2 mi
2:00 am79 °FFog.5 mph94%29.83 "Hg2 mi
1:30 am79 °FFog.3 mph94%29.83 "Hg2 mi
1:00 am79 °FFog.5 mph100%29.83 "Hg2 mi
12:00 am81 °FFog.5 mph94%29.83 "Hg2 mi
11:30 pm
Tue, Jul 27
81 °FFog.3 mph94%29.83 "Hg2 mi
11:00 pm81 °FFog.3 mph94%29.86 "Hg2 mi
10:30 pm81 °FFog.3 mph94%29.86 "Hg2 mi
10:00 pm81 °FFog.6 mph94%29.86 "Hg2 mi
9:30 pm81 °FLight rain. Partly cloudy.8 mph94%29.83 "Hg2 mi
9:00 pm81 °FPassing clouds.8 mph94%29.83 "Hg2 mi
8:30 pm81 °FPassing clouds.7 mph94%29.83 "Hg2 mi
8:00 pm81 °FPassing clouds.7 mph100%29.80 "Hg3 mi
7:30 pm81 °FPassing clouds.9 mph94%29.80 "Hg3 mi
7:00 pm81 °FScattered clouds.9 mph94%29.80 "Hg3 mi
6:30 pm81 °FScattered clouds.10 mph94%29.80 "Hg3 mi
6:00 pm81 °FScattered clouds.7 mph94%29.77 "Hg3 mi
Weather by CustomWeather, © 2021

See weather overview